sensor_id;sensor_type;location;lat;lon;timestamp;temperature;humidity
8463;DHT22;4268;52.506;13.462;2023-06-14T00:02:09;14.80;92.40
8463;DHT22;4268;52.506;13.462;2023-06-14T00:04:35;14.50;92.30
8463;DHT22;4268;52.506;13.462;2023-06-14T00:07:01;14.80;92.40
8463;DHT22;4268;52.506;13.462;2023-06-14T00:09:26;14.80;92.80
8463;DHT22;4268;52.506;13.462;2023-06-14T00:11:52;14.80;93.00
8463;DHT22;4268;52.506;13.462;2023-06-14T00:14:17;14.70;93.40
8463;DHT22;4268;52.506;13.462;2023-06-14T00:16:43;14.60;93.80
8463;DHT22;4268;52.506;13.462;2023-06-14T00:19:09;14.60;94.30
8463;DHT22;4268;52.506;13.462;2023-06-14T00:21:36;14.50;94.80
8463;DHT22;4268;52.506;13.462;2023-06-14T00:24:02;14.50;95.30
8463;DHT22;4268;52.506;13.462;2023-06-14T00:26:27;14.50;95.60
8463;DHT22;4268;52.506;13.462;2023-06-14T00:28:54;14.50;96.20
8463;DHT22;4268;52.506;13.462;2023-06-14T00:31:19;14.50;96.40
8463;DHT22;4268;52.506;13.462;2023-06-14T00:33:45;14.40;96.70
8463;DHT22;4268;52.506;13.462;2023-06-14T00:36:11;14.40;97.20
8463;DHT22;4268;52.506;13.462;2023-06-14T00:38:36;14.40;97.60
8463;DHT22;4268;52.506;13.462;2023-06-14T00:41:02;14.30;97.90
8463;DHT22;4268;52.506;13.462;2023-06-14T00:43:27;14.30;98.40
8463;DHT22;4268;52.506;13.462;2023-06-14T00:45:53;14.30;98.80
8463;DHT22;4268;52.506;13.462;2023-06-14T00:48:18;14.30;99.10
8463;DHT22;4268;52.506;13.462;2023-06-14T00:50:45;14.30;99.60
8463;DHT22;4268;52.506;13.462;2023-06-14T00:53:11;14.20;99.90
8463;DHT22;4268;52.506;13.462;2023-06-14T00:55:37;14.20;99.90
8463;DHT22;4268;52.506;13.462;2023-06-14T00:58:03;14.20;99.90
8463;DHT22;4268;52.506;13.462;2023-06-14T01:00:28;14.10;99.90
8463;DHT22;4268;52.506;13.462;2023-06-14T01:02:54;14.10;99.90
8463;DHT22;4268;52.506;13.462;2023-06-14T01:05:20;14.10;99.90
8463;DHT22;4268;52.506;13.462;2023-06-14T01:08:21;14.10;99.90
8463;DHT22;4268;52.506;13.462;2023-06-14T01:11:02;14.00;99.90
8463;DHT22;4268;52.506;13.462;2023-06-14T01:13:38;14.00;99.90
8463;DHT22;4268;52.506;13.462;2023-06-14T01:16:06;14.00;99.90
8463;DHT22;4268;52.506;13.462;2023-06-14T01:18:33;14.00;99.90
8463;DHT22;4268;52.506;13.462;2023-06-14T01:20:59;14.00;99.90
8463;DHT22;4268;52.506;13.462;2023-06-14T01:23:25;14.00;99.90
8463;DHT22;4268;52.506;13.462;2023-06-14T01:25:58;14.00;99.90
8463;DHT22;4268;52.506;13.462;2023-06-14T01:28:25;14.00;99.90
8463;DHT22;4268;52.506;13.462;2023-06-14T01:30:53;14.00;99.90
8463;DHT22;4268;52.506;13.462;2023-06-14T01:33:24;13.90;99.90
8463;DHT22;4268;52.506;13.462;2023-06-14T01:35:52;13.90;99.90
8463;DHT22;4268;52.506;13.462;2023-06-14T01:38:19;13.90;99.90
8463;DHT22;4268;52.506;13.462;2023-06-14T01:40:47;13.90;99.90
8463;DHT22;4268;52.506;13.462;2023-06-14T01:43:14;13.90;99.90
8463;DHT22;4268;52.506;13.462;2023-06-14T01:45:41;13.90;99.90
8463;DHT22;4268;52.506;13.462;2023-06-14T01:48:08;13.90;99.90
8463;DHT22;4268;52.506;13.462;2023-06-14T01:50:34;13.90;99.90
8463;DHT22;4268;52.506;13.462;2023-06-14T01:52:59;13.80;99.90
8463;DHT22;4268;52.506;13.462;2023-06-14T01:55:25;13.80;99.90
8463;DHT22;4268;52.506;13.462;2023-06-14T01:57:51;13.80;99.90
8463;DHT22;4268;52.506;13.462;2023-06-14T02:00:17;14.60;99.90
8463;DHT22;4268;52.506;13.462;2023-06-14T02:02:43;13.80;99.90
8463;DHT22;4268;52.506;13.462;2023-06-14T02:05:09;13.80;99.90
8463;DHT22;4268;52.506;13.462;2023-06-14T02:07:35;13.80;99.90
8463;DHT22;4268;52.506;13.462;2023-06-14T02:10:01;13.80;99.90
8463;DHT22;4268;52.506;13.462;2023-06-14T02:12:27;13.80;99.90
8463;DHT22;4268;52.506;13.462;2023-06-14T02:14:52;13.80;99.90
8463;DHT22;4268;52.506;13.462;2023-06-14T02:17:18;13.80;99.90
8463;DHT22;4268;52.506;13.462;2023-06-14T02:19:43;13.80;99.90
8463;DHT22;4268;52.506;13.462;2023-06-14T02:22:09;13.80;99.90
8463;DHT22;4268;52.506;13.462;2023-06-14T02:24:34;13.80;99.90
8463;DHT22;4268;52.506;13.462;2023-06-14T02:27:01;13.80;99.90
8463;DHT22;4268;52.506;13.462;2023-06-14T02:29:27;13.80;99.90
8463;DHT22;4268;52.506;13.462;2023-06-14T02:31:52;13.80;99.90
8463;DHT22;4268;52.506;13.462;2023-06-14T02:34:18;13.80;99.90
8463;DHT22;4268;52.506;13.462;2023-06-14T02:36:45;13.80;99.90
8463;DHT22;4268;52.506;13.462;2023-06-14T02:39:11;13.80;99.90
8463;DHT22;4268;52.506;13.462;2023-06-14T02:41:36;13.80;99.90
8463;DHT22;4268;52.506;13.462;2023-06-14T02:44:02;13.80;99.90
8463;DHT22;4268;52.506;13.462;2023-06-14T02:46:27;13.80;99.90
8463;DHT22;4268;52.506;13.462;2023-06-14T02:48:53;13.80;99.90
8463;DHT22;4268;52.506;13.462;2023-06-14T02:51:18;13.80;99.90
8463;DHT22;4268;52.506;13.462;2023-06-14T02:53:44;13.80;99.90
8463;DHT22;4268;52.506;13.462;2023-06-14T02:56:10;13.90;99.90
8463;DHT22;4268;52.506;13.462;2023-06-14T02:58:37;13.90;99.90
8463;DHT22;4268;52.506;13.462;2023-06-14T03:01:04;13.90;99.90
8463;DHT22;4268;52.506;13.462;2023-06-14T03:03:30;13.90;99.90
8463;DHT22;4268;52.506;13.462;2023-06-14T03:05:56;13.90;99.90
8463;DHT22;4268;52.506;13.462;2023-06-14T03:08:22;13.90;99.90
8463;DHT22;4268;52.506;13.462;2023-06-14T03:10:52;13.90;99.90
8463;DHT22;4268;52.506;13.462;2023-06-14T03:13:18;13.90;99.90
8463;DHT22;4268;52.506;13.462;2023-06-14T03:15:47;13.80;99.90
8463;DHT22;4268;52.506;13.462;2023-06-14T03:18:15;13.80;99.90
8463;DHT22;4268;52.506;13.462;2023-06-14T03:20:41;13.80;99.90
8463;DHT22;4268;52.506;13.462;2023-06-14T03:23:08;13.80;99.90
8463;DHT22;4268;52.506;13.462;2023-06-14T03:25:33;13.80;99.90
8463;DHT22;4268;52.506;13.462;2023-06-14T03:28:01;13.70;99.90
8463;DHT22;4268;52.506;13.462;2023-06-14T03:30:27;13.70;99.90
8463;DHT22;4268;52.506;13.462;2023-06-14T03:32:52;13.70;99.90
8463;DHT22;4268;52.506;13.462;2023-06-14T03:35:18;13.80;99.90
8463;DHT22;4268;52.506;13.462;2023-06-14T03:37:45;13.80;99.90
8463;DHT22;4268;52.506;13.462;2023-06-14T03:40:12;13.80;99.90
8463;DHT22;4268;52.506;13.462;2023-06-14T03:42:37;13.70;99.90
8463;DHT22;4268;52.506;13.462;2023-06-14T03:45:04;13.70;99.90
8463;DHT22;4268;52.506;13.462;2023-06-14T03:47:29;13.70;99.90
8463;DHT22;4268;52.506;13.462;2023-06-14T03:49:55;13.80;99.90
8463;DHT22;4268;52.506;13.462;2023-06-14T03:52:20;13.80;99.90
8463;DHT22;4268;52.506;13.462;2023-06-14T03:54:47;13.80;99.90
8463;DHT22;4268;52.506;13.462;2023-06-14T03:57:13;13.80;99.90
8463;DHT22;4268;52.506;13.462;2023-06-14T03:59:38;13.80;99.90
8463;DHT22;4268;52.506;13.462;2023-06-14T04:02:04;13.90;99.90
8463;DHT22;4268;52.506;13.462;2023-06-14T04:04:29;14.00;99.90
8463;DHT22;4268;52.506;13.462;2023-06-14T04:06:55;14.00;99.90
8463;DHT22;4268;52.506;13.462;2023-06-14T04:09:25;14.10;99.90
8463;DHT22;4268;52.506;13.462;2023-06-14T04:11:55;14.20;99.90
8463;DHT22;4268;52.506;13.462;2023-06-14T04:14:21;14.30;99.90
8463;DHT22;4268;52.506;13.462;2023-06-14T04:16:48;14.30;99.90
8463;DHT22;4268;52.506;13.462;2023-06-14T04:19:14;14.30;99.90
8463;DHT22;4268;52.506;13.462;2023-06-14T04:21:39;14.40;99.90
8463;DHT22;4268;52.506;13.462;2023-06-14T04:24:05;14.50;99.90
8463;DHT22;4268;52.506;13.462;2023-06-14T04:26:32;14.50;99.90
8463;DHT22;4268;52.506;13.462;2023-06-14T04:28:59;14.60;99.90
8463;DHT22;4268;52.506;13.462;2023-06-14T04:31:29;14.70;99.90
8463;DHT22;4268;52.506;13.462;2023-06-14T04:33:55;14.80;99.90
8463;DHT22;4268;52.506;13.462;2023-06-14T04:36:21;14.80;99.90
8463;DHT22;4268;52.506;13.462;2023-06-14T04:38:46;14.90;99.90
8463;DHT22;4268;52.506;13.462;2023-06-14T04:41:12;14.90;99.90
8463;DHT22;4268;52.506;13.462;2023-06-14T04:43:38;15.00;99.90
8463;DHT22;4268;52.506;13.462;2023-06-14T04:46:07;15.00;99.90
8463;DHT22;4268;52.506;13.462;2023-06-14T04:48:37;15.10;99.90
8463;DHT22;4268;52.506;13.462;2023-06-14T04:51:03;15.20;99.90
8463;DHT22;4268;52.506;13.462;2023-06-14T04:53:29;15.20;99.90
8463;DHT22;4268;52.506;13.462;2023-06-14T04:55:54;15.20;99.90
8463;DHT22;4268;52.506;13.462;2023-06-14T04:58:20;15.30;99.90
8463;DHT22;4268;52.506;13.462;2023-06-14T05:00:45;15.40;99.90
8463;DHT22;4268;52.506;13.462;2023-06-14T05:03:11;15.50;99.90
8463;DHT22;4268;52.506;13.462;2023-06-14T05:05:39;15.60;99.90
8463;DHT22;4268;52.506;13.462;2023-06-14T05:08:05;15.60;99.90
8463;DHT22;4268;52.506;13.462;2023-06-14T05:10:31;15.70;99.90
8463;DHT22;4268;52.506;13.462;2023-06-14T05:12:56;15.70;99.90
8463;DHT22;4268;52.506;13.462;2023-06-14T05:15:21;15.80;99.90
8463;DHT22;4268;52.506;13.462;2023-06-14T05:17:50;15.90;99.90
8463;DHT22;4268;52.506;13.462;2023-06-14T05:20:21;15.90;99.90
8463;DHT22;4268;52.506;13.462;2023-06-14T05:22:48;16.10;99.90
8463;DHT22;4268;52.506;13.462;2023-06-14T05:25:15;16.20;99.90
8463;DHT22;4268;52.506;13.462;2023-06-14T05:27:40;16.20;99.90
8463;DHT22;4268;52.506;13.462;2023-06-14T05:30:07;16.30;99.90
8463;DHT22;4268;52.506;13.462;2023-06-14T05:32:33;16.40;99.90
8463;DHT22;4268;52.506;13.462;2023-06-14T05:34:59;16.50;99.90
8463;DHT22;4268;52.506;13.462;2023-06-14T05:37:25;16.60;99.90
8463;DHT22;4268;52.506;13.462;2023-06-14T05:39:50;16.60;99.90
8463;DHT22;4268;52.506;13.462;2023-06-14T05:42:16;16.70;99.90
8463;DHT22;4268;52.506;13.462;2023-06-14T05:44:41;16.70;99.90
8463;DHT22;4268;52.506;13.462;2023-06-14T05:49:38;16.70;99.90
8463;DHT22;4268;52.506;13.462;2023-06-14T05:52:03;16.60;99.90
8463;DHT22;4268;52.506;13.462;2023-06-14T05:54:31;16.60;99.90
8463;DHT22;4268;52.506;13.462;2023-06-14T05:56:56;16.60;99.90
8463;DHT22;4268;52.506;13.462;2023-06-14T05:59:26;16.50;99.90
8463;DHT22;4268;52.506;13.462;2023-06-14T06:01:52;16.50;99.90
8463;DHT22;4268;52.506;13.462;2023-06-14T06:04:17;16.50;99.90
8463;DHT22;4268;52.506;13.462;2023-06-14T06:06:43;16.50;99.90
8463;DHT22;4268;52.506;13.462;2023-06-14T06:09:08;16.60;99.90
8463;DHT22;4268;52.506;13.462;2023-06-14T06:11:34;16.60;99.90
8463;DHT22;4268;52.506;13.462;2023-06-14T06:13:59;16.60;99.90
8463;DHT22;4268;52.506;13.462;2023-06-14T06:16:25;16.60;99.90
8463;DHT22;4268;52.506;13.462;2023-06-14T06:18:50;16.60;99.90
8463;DHT22;4268;52.506;13.462;2023-06-14T06:21:16;16.60;99.90
8463;DHT22;4268;52.506;13.462;2023-06-14T06:23:41;16.60;99.90
8463;DHT22;4268;52.506;13.462;2023-06-14T06:26:07;16.70;99.90
8463;DHT22;4268;52.506;13.462;2023-06-14T06:28:32;16.70;99.90
8463;DHT22;4268;52.506;13.462;2023-06-14T06:30:58;16.70;99.90
8463;DHT22;4268;52.506;13.462;2023-06-14T06:33:23;16.80;99.90
8463;DHT22;4268;52.506;13.462;2023-06-14T06:35:49;16.80;99.90
8463;DHT22;4268;52.506;13.462;2023-06-14T06:38:14;16.80;99.90
8463;DHT22;4268;52.506;13.462;2023-06-14T06:40:40;16.80;99.90
8463;DHT22;4268;52.506;13.462;2023-06-14T06:43:05;16.90;99.90
8463;DHT22;4268;52.506;13.462;2023-06-14T06:45:31;16.90;99.90
8463;DHT22;4268;52.506;13.462;2023-06-14T06:47:56;17.10;99.90
8463;DHT22;4268;52.506;13.462;2023-06-14T06:50:22;17.10;99.90
8463;DHT22;4268;52.506;13.462;2023-06-14T06:52:48;17.20;99.90
8463;DHT22;4268;52.506;13.462;2023-06-14T06:55:14;17.30;99.90
8463;DHT22;4268;52.506;13.462;2023-06-14T06:57:39;17.30;99.90
8463;DHT22;4268;52.506;13.462;2023-06-14T07:00:06;17.40;99.90
8463;DHT22;4268;52.506;13.462;2023-06-14T07:02:35;17.40;99.90
8463;DHT22;4268;52.506;13.462;2023-06-14T07:05:01;17.40;99.90
8463;DHT22;4268;52.506;13.462;2023-06-14T07:07:27;17.60;99.90
8463;DHT22;4268;52.506;13.462;2023-06-14T07:09:52;17.70;99.80
8463;DHT22;4268;52.506;13.462;2023-06-14T07:12:18;17.80;99.30
8463;DHT22;4268;52.506;13.462;2023-06-14T07:14:43;17.90;99.00
8463;DHT22;4268;52.506;13.462;2023-06-14T07:17:09;18.00;98.80
8463;DHT22;4268;52.506;13.462;2023-06-14T07:19:35;18.00;98.70
8463;DHT22;4268;52.506;13.462;2023-06-14T07:22:00;18.10;98.40
8463;DHT22;4268;52.506;13.462;2023-06-14T07:24:26;18.20;98.40
8463;DHT22;4268;52.506;13.462;2023-06-14T07:26:53;18.30;98.10
8463;DHT22;4268;52.506;13.462;2023-06-14T07:29:20;18.40;98.10
8463;DHT22;4268;52.506;13.462;2023-06-14T07:31:46;18.80;97.70
8463;DHT22;4268;52.506;13.462;2023-06-14T07:34:12;19.20;97.00
8463;DHT22;4268;52.506;13.462;2023-06-14T07:36:37;19.40;96.30
8463;DHT22;4268;52.506;13.462;2023-06-14T07:39:03;19.60;96.00
8463;DHT22;4268;52.506;13.462;2023-06-14T07:41:29;19.60;95.30
8463;DHT22;4268;52.506;13.462;2023-06-14T07:43:55;19.60;95.20
8463;DHT22;4268;52.506;13.462;2023-06-14T07:46:20;19.60;95.20
8463;DHT22;4268;52.506;13.462;2023-06-14T07:48:46;19.80;95.30
8463;DHT22;4268;52.506;13.462;2023-06-14T07:51:11;19.90;94.80
8463;DHT22;4268;52.506;13.462;2023-06-14T07:53:37;20.10;94.70
8463;DHT22;4268;52.506;13.462;2023-06-14T07:56:02;20.30;94.10
8463;DHT22;4268;52.506;13.462;2023-06-14T07:58:28;20.50;93.60
8463;DHT22;4268;52.506;13.462;2023-06-14T08:00:53;20.60;93.30
8463;DHT22;4268;52.506;13.462;2023-06-14T08:03:19;20.70;93.10
8463;DHT22;4268;52.506;13.462;2023-06-14T08:05:45;20.70;92.80
8463;DHT22;4268;52.506;13.462;2023-06-14T08:08:10;20.60;92.60
8463;DHT22;4268;52.506;13.462;2023-06-14T08:10:36;20.40;92.60
8463;DHT22;4268;52.506;13.462;2023-06-14T08:13:01;20.20;92.70
8463;DHT22;4268;52.506;13.462;2023-06-14T08:15:27;20.20;92.80
8463;DHT22;4268;52.506;13.462;2023-06-14T08:17:53;20.10;93.10
8463;DHT22;4268;52.506;13.462;2023-06-14T08:20:19;20.20;93.10
8463;DHT22;4268;52.506;13.462;2023-06-14T08:22:44;20.20;92.60
8463;DHT22;4268;52.506;13.462;2023-06-14T08:25:11;20.30;92.70
8463;DHT22;4268;52.506;13.462;2023-06-14T08:27:37;20.50;92.70
8463;DHT22;4268;52.506;13.462;2023-06-14T08:30:03;20.50;92.30
8463;DHT22;4268;52.506;13.462;2023-06-14T08:32:29;20.60;92.20
8463;DHT22;4268;52.506;13.462;2023-06-14T08:34:54;20.70;92.20
8463;DHT22;4268;52.506;13.462;2023-06-14T08:37:20;20.80;91.90
8463;DHT22;4268;52.506;13.462;2023-06-14T08:39:46;20.80;91.50
8463;DHT22;4268;52.506;13.462;2023-06-14T08:42:12;20.80;91.40
8463;DHT22;4268;52.506;13.462;2023-06-14T08:44:39;20.70;91.30
8463;DHT22;4268;52.506;13.462;2023-06-14T08:47:06;20.70;91.10
8463;DHT22;4268;52.506;13.462;2023-06-14T08:49:32;20.80;90.60
8463;DHT22;4268;52.506;13.462;2023-06-14T08:51:59;20.80;89.80
8463;DHT22;4268;52.506;13.462;2023-06-14T08:54:27;20.70;89.60
8463;DHT22;4268;52.506;13.462;2023-06-14T08:56:55;20.40;89.60
8463;DHT22;4268;52.506;13.462;2023-06-14T08:59:27;20.30;90.40
8463;DHT22;4268;52.506;13.462;2023-06-14T09:01:53;20.30;90.40
8463;DHT22;4268;52.506;13.462;2023-06-14T09:04:20;20.30;90.70
8463;DHT22;4268;52.506;13.462;2023-06-14T09:06:47;20.40;90.90
8463;DHT22;4268;52.506;13.462;2023-06-14T09:09:20;20.60;90.60
8463;DHT22;4268;52.506;13.462;2023-06-14T09:11:46;20.60;90.50
8463;DHT22;4268;52.506;13.462;2023-06-14T09:14:11;20.60;90.50
8463;DHT22;4268;52.506;13.462;2023-06-14T09:16:37;20.70;89.90
8463;DHT22;4268;52.506;13.462;2023-06-14T09:19:02;20.60;89.50
8463;DHT22;4268;52.506;13.462;2023-06-14T09:21:28;20.60;89.60
8463;DHT22;4268;52.506;13.462;2023-06-14T09:23:59;20.50;89.00
8463;DHT22;4268;52.506;13.462;2023-06-14T09:26:25;20.30;89.60
8463;DHT22;4268;52.506;13.462;2023-06-14T09:28:53;20.30;90.00
8463;DHT22;4268;52.506;13.462;2023-06-14T09:31:20;20.30;90.10
8463;DHT22;4268;52.506;13.462;2023-06-14T09:33:49;20.40;89.90
8463;DHT22;4268;52.506;13.462;2023-06-14T09:36:16;20.60;89.50
8463;DHT22;4268;52.506;13.462;2023-06-14T09:38:58;20.80;88.80
8463;DHT22;4268;52.506;13.462;2023-06-14T09:41:34;20.90;89.00
8463;DHT22;4268;52.506;13.462;2023-06-14T09:44:00;20.90;88.20
8463;DHT22;4268;52.506;13.462;2023-06-14T09:46:28;20.90;87.80
8463;DHT22;4268;52.506;13.462;2023-06-14T09:48:55;20.90;87.80
8463;DHT22;4268;52.506;13.462;2023-06-14T09:51:22;20.90;87.70
8463;DHT22;4268;52.506;13.462;2023-06-14T09:53:49;20.70;87.80
8463;DHT22;4268;52.506;13.462;2023-06-14T09:56:27;20.80;88.60
8463;DHT22;4268;52.506;13.462;2023-06-14T09:58:56;20.70;89.20
8463;DHT22;4268;52.506;13.462;2023-06-14T10:01:24;20.90;89.00
8463;DHT22;4268;52.506;13.462;2023-06-14T10:03:58;21.10;88.40
8463;DHT22;4268;52.506;13.462;2023-06-14T10:06:26;21.30;87.50
8463;DHT22;4268;52.506;13.462;2023-06-14T10:08:56;21.20;86.30
8463;DHT22;4268;52.506;13.462;2023-06-14T10:11:23;21.10;85.60
8463;DHT22;4268;52.506;13.462;2023-06-14T10:13:50;21.10;86.20
8463;DHT22;4268;52.506;13.462;2023-06-14T10:16:32;21.10;85.90
8463;DHT22;4268;52.506;13.462;2023-06-14T10:19:18;20.90;86.00
8463;DHT22;4268;52.506;13.462;2023-06-14T10:21:57;20.80;86.20
8463;DHT22;4268;52.506;13.462;2023-06-14T10:24:33;20.70;86.40
8463;DHT22;4268;52.506;13.462;2023-06-14T10:26:59;20.70;86.80
8463;DHT22;4268;52.506;13.462;2023-06-14T10:29:27;20.90;86.70
8463;DHT22;4268;52.506;13.462;2023-06-14T10:31:58;21.00;86.60
8463;DHT22;4268;52.506;13.462;2023-06-14T10:34:29;21.10;86.50
8463;DHT22;4268;52.506;13.462;2023-06-14T10:37:12;21.30;85.90
8463;DHT22;4268;52.506;13.462;2023-06-14T10:39:42;21.10;84.60
8463;DHT22;4268;52.506;13.462;2023-06-14T10:42:09;20.90;85.10
8463;DHT22;4268;52.506;13.462;2023-06-14T10:44:51;20.80;85.20
8463;DHT22;4268;52.506;13.462;2023-06-14T10:47:29;20.70;86.10
8463;DHT22;4268;52.506;13.462;2023-06-14T10:52:24;20.90;86.90
8463;DHT22;4268;52.506;13.462;2023-06-14T10:55:10;20.80;86.40
8463;DHT22;4268;52.506;13.462;2023-06-14T10:57:50;21.00;86.10
8463;DHT22;4268;52.506;13.462;2023-06-14T11:00:23;21.20;85.10
8463;DHT22;4268;52.506;13.462;2023-06-14T11:03:35;21.30;85.00
8463;DHT22;4268;52.506;13.462;2023-06-14T11:06:14;21.30;83.60
8463;DHT22;4268;52.506;13.462;2023-06-14T11:09:27;21.30;83.30
8463;DHT22;4268;52.506;13.462;2023-06-14T11:12:01;21.40;82.60
8463;DHT22;4268;52.506;13.462;2023-06-14T11:14:30;21.40;82.80
8463;DHT22;4268;52.506;13.462;2023-06-14T11:16:56;21.40;82.80
8463;DHT22;4268;52.506;13.462;2023-06-14T11:19:22;21.30;82.50
8463;DHT22;4268;52.506;13.462;2023-06-14T11:21:48;21.40;82.30
8463;DHT22;4268;52.506;13.462;2023-06-14T11:24:14;21.50;81.80
8463;DHT22;4268;52.506;13.462;2023-06-14T11:26:40;21.50;81.70
8463;DHT22;4268;52.506;13.462;2023-06-14T11:29:06;21.50;81.80
8463;DHT22;4268;52.506;13.462;2023-06-14T11:31:32;21.60;80.70
8463;DHT22;4268;52.506;13.462;2023-06-14T11:33:58;21.60;80.80
8463;DHT22;4268;52.506;13.462;2023-06-14T11:36:31;21.80;81.00
8463;DHT22;4268;52.506;13.462;2023-06-14T11:39:03;21.90;80.60
8463;DHT22;4268;52.506;13.462;2023-06-14T11:41:41;21.90;80.20
8463;DHT22;4268;52.506;13.462;2023-06-14T11:44:07;21.80;79.90
8463;DHT22;4268;52.506;13.462;2023-06-14T11:46:33;21.70;80.20
8463;DHT22;4268;52.506;13.462;2023-06-14T11:48:59;21.70;80.50
8463;DHT22;4268;52.506;13.462;2023-06-14T11:51:28;21.80;80.20
8463;DHT22;4268;52.506;13.462;2023-06-14T11:53:54;21.90;79.00
8463;DHT22;4268;52.506;13.462;2023-06-14T11:56:20;21.80;78.10
8463;DHT22;4268;52.506;13.462;2023-06-14T11:58:46;21.70;78.10
8463;DHT22;4268;52.506;13.462;2023-06-14T12:01:16;21.80;76.30
8463;DHT22;4268;52.506;13.462;2023-06-14T12:03:49;21.60;75.90
8463;DHT22;4268;52.506;13.462;2023-06-14T12:06:15;21.50;76.80
8463;DHT22;4268;52.506;13.462;2023-06-14T12:08:42;21.60;77.60
8463;DHT22;4268;52.506;13.462;2023-06-14T12:11:13;21.80;77.70
8463;DHT22;4268;52.506;13.462;2023-06-14T12:13:39;21.90;77.30
8463;DHT22;4268;52.506;13.462;2023-06-14T12:16:07;22.10;77.80
8463;DHT22;4268;52.506;13.462;2023-06-14T12:18:35;22.20;78.10
8463;DHT22;4268;52.506;13.462;2023-06-14T12:21:01;22.30;75.50
8463;DHT22;4268;52.506;13.462;2023-06-14T12:23:46;22.30;75.90
8463;DHT22;4268;52.506;13.462;2023-06-14T12:26:16;22.50;75.30
8463;DHT22;4268;52.506;13.462;2023-06-14T12:28:44;22.50;74.00
8463;DHT22;4268;52.506;13.462;2023-06-14T12:31:11;22.70;73.50
8463;DHT22;4268;52.506;13.462;2023-06-14T12:33:38;22.80;72.50
8463;DHT22;4268;52.506;13.462;2023-06-14T12:36:08;22.80;71.60
8463;DHT22;4268;52.506;13.462;2023-06-14T12:38:34;22.70;69.80
8463;DHT22;4268;52.506;13.462;2023-06-14T12:41:00;22.70;69.80
8463;DHT22;4268;52.506;13.462;2023-06-14T12:43:28;22.70;69.70
8463;DHT22;4268;52.506;13.462;2023-06-14T12:45:57;22.80;68.90
8463;DHT22;4268;52.506;13.462;2023-06-14T12:48:22;22.90;68.00
8463;DHT22;4268;52.506;13.462;2023-06-14T12:50:48;23.10;68.20
8463;DHT22;4268;52.506;13.462;2023-06-14T12:53:13;23.10;67.10
8463;DHT22;4268;52.506;13.462;2023-06-14T12:55:39;23.20;67.20
8463;DHT22;4268;52.506;13.462;2023-06-14T12:58:05;23.40;65.80
8463;DHT22;4268;52.506;13.462;2023-06-14T13:00:30;23.50;64.10
8463;DHT22;4268;52.506;13.462;2023-06-14T13:02:57;23.60;65.00
8463;DHT22;4268;52.506;13.462;2023-06-14T13:05:22;23.60;63.80
8463;DHT22;4268;52.506;13.462;2023-06-14T13:07:48;23.70;64.10
8463;DHT22;4268;52.506;13.462;2023-06-14T13:10:14;23.80;63.80
8463;DHT22;4268;52.506;13.462;2023-06-14T13:12:39;23.90;62.40
8463;DHT22;4268;52.506;13.462;2023-06-14T13:15:05;24.00;62.50
8463;DHT22;4268;52.506;13.462;2023-06-14T13:17:32;24.10;62.00
8463;DHT22;4268;52.506;13.462;2023-06-14T13:19:58;24.20;62.20
8463;DHT22;4268;52.506;13.462;2023-06-14T13:22:24;24.20;61.10
8463;DHT22;4268;52.506;13.462;2023-06-14T13:24:50;24.10;60.00
8463;DHT22;4268;52.506;13.462;2023-06-14T13:27:15;24.00;60.40
8463;DHT22;4268;52.506;13.462;2023-06-14T13:29:41;24.10;61.20
8463;DHT22;4268;52.506;13.462;2023-06-14T13:32:07;24.10;59.90
8463;DHT22;4268;52.506;13.462;2023-06-14T13:34:33;24.00;59.30
8463;DHT22;4268;52.506;13.462;2023-06-14T13:36:58;24.00;59.60
8463;DHT22;4268;52.506;13.462;2023-06-14T13:39:27;24.10;59.50
8463;DHT22;4268;52.506;13.462;2023-06-14T13:41:52;24.20;59.50
8463;DHT22;4268;52.506;13.462;2023-06-14T13:44:18;24.20;59.50
8463;DHT22;4268;52.506;13.462;2023-06-14T13:46:46;24.10;59.20
8463;DHT22;4268;52.506;13.462;2023-06-14T13:49:12;24.20;59.70
8463;DHT22;4268;52.506;13.462;2023-06-14T13:51:38;24.30;58.70
8463;DHT22;4268;52.506;13.462;2023-06-14T13:54:04;24.40;57.60
8463;DHT22;4268;52.506;13.462;2023-06-14T13:56:29;24.50;58.30
8463;DHT22;4268;52.506;13.462;2023-06-14T13:58:55;24.40;59.70
8463;DHT22;4268;52.506;13.462;2023-06-14T14:01:21;24.30;60.40
8463;DHT22;4268;52.506;13.462;2023-06-14T14:03:48;24.40;60.80
8463;DHT22;4268;52.506;13.462;2023-06-14T14:06:15;24.50;59.80
8463;DHT22;4268;52.506;13.462;2023-06-14T14:08:41;24.70;59.90
8463;DHT22;4268;52.506;13.462;2023-06-14T14:11:06;24.50;60.30
8463;DHT22;4268;52.506;13.462;2023-06-14T14:13:33;24.50;59.40
8463;DHT22;4268;52.506;13.462;2023-06-14T14:15:59;24.40;59.60
8463;DHT22;4268;52.506;13.462;2023-06-14T14:18:24;24.30;58.80
8463;DHT22;4268;52.506;13.462;2023-06-14T14:20:50;24.20;59.40
8463;DHT22;4268;52.506;13.462;2023-06-14T14:23:15;24.20;59.80
8463;DHT22;4268;52.506;13.462;2023-06-14T14:25:41;24.30;60.00
8463;DHT22;4268;52.506;13.462;2023-06-14T14:28:07;24.40;59.50
8463;DHT22;4268;52.506;13.462;2023-06-14T14:30:32;24.40;58.70
8463;DHT22;4268;52.506;13.462;2023-06-14T14:32:59;24.30;58.50
8463;DHT22;4268;52.506;13.462;2023-06-14T14:35:24;24.30;57.70
8463;DHT22;4268;52.506;13.462;2023-06-14T14:37:55;24.20;57.20
8463;DHT22;4268;52.506;13.462;2023-06-14T14:40:21;24.00;56.90
8463;DHT22;4268;52.506;13.462;2023-06-14T14:42:46;23.90;57.40
8463;DHT22;4268;52.506;13.462;2023-06-14T14:45:12;23.90;57.90
8463;DHT22;4268;52.506;13.462;2023-06-14T14:47:37;23.90;57.40
8463;DHT22;4268;52.506;13.462;2023-06-14T14:50:03;23.90;57.90
8463;DHT22;4268;52.506;13.462;2023-06-14T14:52:29;24.00;57.40
8463;DHT22;4268;52.506;13.462;2023-06-14T14:54:54;24.00;57.20
8463;DHT22;4268;52.506;13.462;2023-06-14T14:57:20;24.00;57.30
8463;DHT22;4268;52.506;13.462;2023-06-14T14:59:46;24.00;57.20
8463;DHT22;4268;52.506;13.462;2023-06-14T15:02:11;24.00;57.30
8463;DHT22;4268;52.506;13.462;2023-06-14T15:04:37;23.90;57.40
8463;DHT22;4268;52.506;13.462;2023-06-14T15:07:02;23.80;58.30
8463;DHT22;4268;52.506;13.462;2023-06-14T15:09:28;23.70;59.30
8463;DHT22;4268;52.506;13.462;2023-06-14T15:11:54;23.60;59.90
8463;DHT22;4268;52.506;13.462;2023-06-14T15:14:19;23.60;60.10
8463;DHT22;4268;52.506;13.462;2023-06-14T15:16:45;23.60;60.30
8463;DHT22;4268;52.506;13.462;2023-06-14T15:19:10;23.50;60.10
8463;DHT22;4268;52.506;13.462;2023-06-14T15:21:36;23.50;60.20
8463;DHT22;4268;52.506;13.462;2023-06-14T15:24:01;23.60;60.50
8463;DHT22;4268;52.506;13.462;2023-06-14T15:26:27;23.60;60.50
8463;DHT22;4268;52.506;13.462;2023-06-14T15:28:52;23.60;60.50
8463;DHT22;4268;52.506;13.462;2023-06-14T15:31:18;23.70;60.20
8463;DHT22;4268;52.506;13.462;2023-06-14T15:33:43;23.60;60.40
8463;DHT22;4268;52.506;13.462;2023-06-14T15:36:10;23.70;60.20
8463;DHT22;4268;52.506;13.462;2023-06-14T15:38:35;23.70;60.00
8463;DHT22;4268;52.506;13.462;2023-06-14T15:41:01;23.70;60.10
8463;DHT22;4268;52.506;13.462;2023-06-14T15:43:26;23.80;60.70
8463;DHT22;4268;52.506;13.462;2023-06-14T15:45:52;23.70;60.90
8463;DHT22;4268;52.506;13.462;2023-06-14T15:48:17;23.40;61.00
8463;DHT22;4268;52.506;13.462;2023-06-14T15:50:43;23.60;61.10